sensor_id;sensor_type;location;lat;lon;timestamp;P1;durP1;ratioP1;P2;durP2;ratioP2
49175;SDS011;35012;47.200;9.748;2023-04-24T00:00:01;0.90;;;0.20;;
49175;SDS011;35012;47.200;9.748;2023-04-24T00:02:30;0.60;;;0.30;;
49175;SDS011;35012;47.200;9.748;2023-04-24T00:04:57;0.30;;;0.20;;
49175;SDS011;35012;47.200;9.748;2023-04-24T00:07:28;0.73;;;0.50;;
49175;SDS011;35012;47.200;9.748;2023-04-24T00:09:54;0.60;;;0.30;;
49175;SDS011;35012;47.200;9.748;2023-04-24T00:12:20;2.43;;;0.23;;
49175;SDS011;35012;47.200;9.748;2023-04-24T00:14:45;0.40;;;0.23;;
49175;SDS011;35012;47.200;9.748;2023-04-24T00:17:11;0.30;;;0.30;;
49175;SDS011;35012;47.200;9.748;2023-04-24T00:19:36;0.20;;;0.20;;
49175;SDS011;35012;47.200;9.748;2023-04-24T00:22:02;0.80;;;0.30;;
49175;SDS011;35012;47.200;9.748;2023-04-24T00:24:28;0.30;;;0.30;;
49175;SDS011;35012;47.200;9.748;2023-04-24T00:26:54;0.53;;;0.40;;
49175;SDS011;35012;47.200;9.748;2023-04-24T00:29:19;0.90;;;0.30;;
49175;SDS011;35012;47.200;9.748;2023-04-24T00:31:45;0.70;;;0.33;;
49175;SDS011;35012;47.200;9.748;2023-04-24T00:34:10;0.70;;;0.40;;
49175;SDS011;35012;47.200;9.748;2023-04-24T00:36:37;0.27;;;0.20;;
49175;SDS011;35012;47.200;9.748;2023-04-24T00:39:02;0.30;;;0.20;;
49175;SDS011;35012;47.200;9.748;2023-04-24T00:41:28;0.30;;;0.20;;
49175;SDS011;35012;47.200;9.748;2023-04-24T00:43:53;1.10;;;0.20;;
49175;SDS011;35012;47.200;9.748;2023-04-24T00:46:19;1.07;;;0.40;;
49175;SDS011;35012;47.200;9.748;2023-04-24T00:48:46;0.40;;;0.30;;
49175;SDS011;35012;47.200;9.748;2023-04-24T00:51:11;0.73;;;0.40;;
49175;SDS011;35012;47.200;9.748;2023-04-24T00:53:37;0.70;;;0.40;;
49175;SDS011;35012;47.200;9.748;2023-04-24T00:56:03;1.67;;;0.30;;
49175;SDS011;35012;47.200;9.748;2023-04-24T00:58:30;1.03;;;0.30;;
49175;SDS011;35012;47.200;9.748;2023-04-24T01:00:56;2.30;;;0.43;;
49175;SDS011;35012;47.200;9.748;2023-04-24T01:03:24;0.67;;;0.40;;
49175;SDS011;35012;47.200;9.748;2023-04-24T01:05:51;0.60;;;0.30;;
49175;SDS011;35012;47.200;9.748;2023-04-24T01:08:17;0.40;;;0.30;;
49175;SDS011;35012;47.200;9.748;2023-04-24T01:10:43;0.50;;;0.30;;
49175;SDS011;35012;47.200;9.748;2023-04-24T01:13:11;1.70;;;0.40;;
49175;SDS011;35012;47.200;9.748;2023-04-24T01:15:36;1.10;;;0.30;;
49175;SDS011;35012;47.200;9.748;2023-04-24T01:18:02;0.60;;;0.40;;
49175;SDS011;35012;47.200;9.748;2023-04-24T01:20:28;1.47;;;0.50;;
49175;SDS011;35012;47.200;9.748;2023-04-24T01:22:55;0.33;;;0.30;;
49175;SDS011;35012;47.200;9.748;2023-04-24T01:25:21;0.30;;;0.30;;
49175;SDS011;35012;47.200;9.748;2023-04-24T01:27:48;0.33;;;0.30;;
49175;SDS011;35012;47.200;9.748;2023-04-24T01:30:13;1.47;;;0.40;;
49175;SDS011;35012;47.200;9.748;2023-04-24T01:32:40;0.40;;;0.30;;
49175;SDS011;35012;47.200;9.748;2023-04-24T01:35:09;0.40;;;0.30;;
49175;SDS011;35012;47.200;9.748;2023-04-24T01:37:35;0.80;;;0.40;;
49175;SDS011;35012;47.200;9.748;2023-04-24T01:40:02;0.30;;;0.30;;
49175;SDS011;35012;47.200;9.748;2023-04-24T01:42:31;0.30;;;0.30;;
49175;SDS011;35012;47.200;9.748;2023-04-24T01:44:57;0.53;;;0.30;;
49175;SDS011;35012;47.200;9.748;2023-04-24T01:47:23;0.57;;;0.30;;
49175;SDS011;35012;47.200;9.748;2023-04-24T01:49:49;0.70;;;0.30;;
49175;SDS011;35012;47.200;9.748;2023-04-24T01:52:15;1.27;;;0.40;;
49175;SDS011;35012;47.200;9.748;2023-04-24T01:54:42;0.40;;;0.30;;
49175;SDS011;35012;47.200;9.748;2023-04-24T01:57:08;0.60;;;0.40;;
49175;SDS011;35012;47.200;9.748;2023-04-24T01:59:33;1.20;;;0.37;;
49175;SDS011;35012;47.200;9.748;2023-04-24T02:02:01;2.10;;;0.40;;
49175;SDS011;35012;47.200;9.748;2023-04-24T02:04:28;0.50;;;0.30;;
49175;SDS011;35012;47.200;9.748;2023-04-24T02:06:53;0.73;;;0.30;;
49175;SDS011;35012;47.200;9.748;2023-04-24T02:09:19;1.60;;;0.30;;
49175;SDS011;35012;47.200;9.748;2023-04-24T02:11:45;0.73;;;0.37;;
49175;SDS011;35012;47.200;9.748;2023-04-24T02:14:10;0.80;;;0.40;;
49175;SDS011;35012;47.200;9.748;2023-04-24T02:16:36;1.50;;;0.80;;
49175;SDS011;35012;47.200;9.748;2023-04-24T02:19:01;0.87;;;0.60;;
49175;SDS011;35012;47.200;9.748;2023-04-24T02:21:27;0.80;;;0.60;;
49175;SDS011;35012;47.200;9.748;2023-04-24T02:23:53;0.60;;;0.40;;
49175;SDS011;35012;47.200;9.748;2023-04-24T02:26:20;0.57;;;0.30;;
49175;SDS011;35012;47.200;9.748;2023-04-24T02:28:45;0.40;;;0.40;;
49175;SDS011;35012;47.200;9.748;2023-04-24T02:31:11;0.50;;;0.40;;
49175;SDS011;35012;47.200;9.748;2023-04-24T02:33:36;0.40;;;0.40;;
49175;SDS011;35012;47.200;9.748;2023-04-24T02:36:02;1.37;;;0.50;;
49175;SDS011;35012;47.200;9.748;2023-04-24T02:38:28;1.40;;;0.50;;
49175;SDS011;35012;47.200;9.748;2023-04-24T02:40:54;1.00;;;0.40;;
49175;SDS011;35012;47.200;9.748;2023-04-24T02:43:19;0.60;;;0.43;;
49175;SDS011;35012;47.200;9.748;2023-04-24T02:45:45;1.70;;;0.40;;
49175;SDS011;35012;47.200;9.748;2023-04-24T02:48:11;1.30;;;0.63;;
49175;SDS011;35012;47.200;9.748;2023-04-24T02:50:36;1.47;;;0.70;;
49175;SDS011;35012;47.200;9.748;2023-04-24T02:53:02;1.53;;;0.50;;
49175;SDS011;35012;47.200;9.748;2023-04-24T02:55:28;1.53;;;0.40;;
49175;SDS011;35012;47.200;9.748;2023-04-24T02:57:53;0.80;;;0.47;;
49175;SDS011;35012;47.200;9.748;2023-04-24T03:00:19;1.30;;;0.50;;
49175;SDS011;35012;47.200;9.748;2023-04-24T03:02:44;0.30;;;0.30;;
49175;SDS011;35012;47.200;9.748;2023-04-24T03:05:10;1.73;;;0.40;;
49175;SDS011;35012;47.200;9.748;2023-04-24T03:07:37;1.37;;;0.80;;
49175;SDS011;35012;47.200;9.748;2023-04-24T03:10:03;1.40;;;0.40;;
49175;SDS011;35012;47.200;9.748;2023-04-24T03:12:30;0.63;;;0.40;;
49175;SDS011;35012;47.200;9.748;2023-04-24T03:14:56;0.70;;;0.50;;
49175;SDS011;35012;47.200;9.748;2023-04-24T03:17:22;0.80;;;0.57;;
49175;SDS011;35012;47.200;9.748;2023-04-24T03:19:47;0.87;;;0.43;;
49175;SDS011;35012;47.200;9.748;2023-04-24T03:22:13;0.43;;;0.40;;
49175;SDS011;35012;47.200;9.748;2023-04-24T03:24:38;2.30;;;0.53;;
49175;SDS011;35012;47.200;9.748;2023-04-24T03:27:04;1.23;;;0.50;;
49175;SDS011;35012;47.200;9.748;2023-04-24T03:29:29;1.40;;;0.47;;
49175;SDS011;35012;47.200;9.748;2023-04-24T03:31:55;0.70;;;0.40;;
49175;SDS011;35012;47.200;9.748;2023-04-24T03:34:20;1.33;;;0.30;;
49175;SDS011;35012;47.200;9.748;2023-04-24T03:36:46;0.60;;;0.40;;
49175;SDS011;35012;47.200;9.748;2023-04-24T03:39:14;0.70;;;0.40;;
49175;SDS011;35012;47.200;9.748;2023-04-24T03:41:39;0.30;;;0.30;;
49175;SDS011;35012;47.200;9.748;2023-04-24T03:44:05;1.23;;;0.50;;
49175;SDS011;35012;47.200;9.748;2023-04-24T03:46:31;0.47;;;0.47;;
49175;SDS011;35012;47.200;9.748;2023-04-24T03:48:56;0.30;;;0.30;;
49175;SDS011;35012;47.200;9.748;2023-04-24T03:51:22;1.93;;;0.50;;
49175;SDS011;35012;47.200;9.748;2023-04-24T03:53:48;0.43;;;0.40;;
49175;SDS011;35012;47.200;9.748;2023-04-24T03:56:14;0.93;;;0.50;;
49175;SDS011;35012;47.200;9.748;2023-04-24T03:58:39;0.40;;;0.30;;
49175;SDS011;35012;47.200;9.748;2023-04-24T04:01:05;1.03;;;0.30;;
49175;SDS011;35012;47.200;9.748;2023-04-24T04:03:31;0.97;;;0.40;;
49175;SDS011;35012;47.200;9.748;2023-04-24T04:05:57;0.70;;;0.40;;
49175;SDS011;35012;47.200;9.748;2023-04-24T04:08:22;0.80;;;0.60;;
49175;SDS011;35012;47.200;9.748;2023-04-24T04:10:48;1.00;;;0.50;;
49175;SDS011;35012;47.200;9.748;2023-04-24T04:13:14;1.23;;;0.90;;
49175;SDS011;35012;47.200;9.748;2023-04-24T04:15:40;1.23;;;0.60;;
49175;SDS011;35012;47.200;9.748;2023-04-24T04:18:07;1.23;;;0.40;;
49175;SDS011;35012;47.200;9.748;2023-04-24T04:20:33;0.60;;;0.47;;
49175;SDS011;35012;47.200;9.748;2023-04-24T04:22:59;0.83;;;0.53;;
49175;SDS011;35012;47.200;9.748;2023-04-24T04:25:24;1.40;;;1.00;;
49175;SDS011;35012;47.200;9.748;2023-04-24T04:27:50;0.90;;;0.73;;
49175;SDS011;35012;47.200;9.748;2023-04-24T04:30:16;0.80;;;0.60;;
49175;SDS011;35012;47.200;9.748;2023-04-24T04:32:43;0.83;;;0.50;;
49175;SDS011;35012;47.200;9.748;2023-04-24T04:35:09;0.60;;;0.50;;
49175;SDS011;35012;47.200;9.748;2023-04-24T04:37:35;0.60;;;0.47;;
49175;SDS011;35012;47.200;9.748;2023-04-24T04:40:00;1.67;;;0.50;;
49175;SDS011;35012;47.200;9.748;2023-04-24T04:42:31;0.97;;;0.50;;
49175;SDS011;35012;47.200;9.748;2023-04-24T04:44:57;1.73;;;0.60;;
49175;SDS011;35012;47.200;9.748;2023-04-24T04:47:23;0.50;;;0.40;;
49175;SDS011;35012;47.200;9.748;2023-04-24T04:49:49;0.90;;;0.50;;
49175;SDS011;35012;47.200;9.748;2023-04-24T04:52:16;0.63;;;0.50;;
49175;SDS011;35012;47.200;9.748;2023-04-24T04:54:42;1.23;;;0.50;;
49175;SDS011;35012;47.200;9.748;2023-04-24T04:57:08;0.63;;;0.40;;
49175;SDS011;35012;47.200;9.748;2023-04-24T04:59:34;1.67;;;0.80;;
49175;SDS011;35012;47.200;9.748;2023-04-24T05:01:59;0.60;;;0.50;;
49175;SDS011;35012;47.200;9.748;2023-04-24T05:04:25;1.00;;;0.50;;
49175;SDS011;35012;47.200;9.748;2023-04-24T05:06:51;1.43;;;0.60;;
49175;SDS011;35012;47.200;9.748;2023-04-24T05:09:17;0.50;;;0.50;;
49175;SDS011;35012;47.200;9.748;2023-04-24T05:11:42;1.03;;;0.40;;
49175;SDS011;35012;47.200;9.748;2023-04-24T05:14:08;1.80;;;0.60;;
49175;SDS011;35012;47.200;9.748;2023-04-24T05:16:34;0.43;;;0.40;;
49175;SDS011;35012;47.200;9.748;2023-04-24T05:18:59;0.63;;;0.50;;
49175;SDS011;35012;47.200;9.748;2023-04-24T05:21:25;0.57;;;0.43;;
49175;SDS011;35012;47.200;9.748;2023-04-24T05:23:51;1.00;;;0.40;;
49175;SDS011;35012;47.200;9.748;2023-04-24T05:26:17;2.67;;;0.70;;
49175;SDS011;35012;47.200;9.748;2023-04-24T05:28:43;1.60;;;0.70;;
49175;SDS011;35012;47.200;9.748;2023-04-24T05:31:08;1.00;;;0.60;;
49175;SDS011;35012;47.200;9.748;2023-04-24T05:33:34;0.60;;;0.50;;
49175;SDS011;35012;47.200;9.748;2023-04-24T05:35:59;1.97;;;0.70;;
49175;SDS011;35012;47.200;9.748;2023-04-24T05:38:25;0.53;;;0.53;;
49175;SDS011;35012;47.200;9.748;2023-04-24T05:40:50;1.33;;;0.50;;
49175;SDS011;35012;47.200;9.748;2023-04-24T05:43:16;0.80;;;0.50;;
49175;SDS011;35012;47.200;9.748;2023-04-24T05:45:41;1.57;;;0.60;;
49175;SDS011;35012;47.200;9.748;2023-04-24T05:48:07;0.67;;;0.57;;
49175;SDS011;35012;47.200;9.748;2023-04-24T05:50:33;1.30;;;0.40;;
49175;SDS011;35012;47.200;9.748;2023-04-24T05:52:58;1.23;;;0.50;;
49175;SDS011;35012;47.200;9.748;2023-04-24T05:55:24;0.60;;;0.40;;
49175;SDS011;35012;47.200;9.748;2023-04-24T05:57:50;0.90;;;0.50;;
49175;SDS011;35012;47.200;9.748;2023-04-24T06:00:16;2.77;;;0.70;;
49175;SDS011;35012;47.200;9.748;2023-04-24T06:02:44;0.63;;;0.50;;
49175;SDS011;35012;47.200;9.748;2023-04-24T06:05:10;1.83;;;0.63;;
49175;SDS011;35012;47.200;9.748;2023-04-24T06:07:36;0.70;;;0.60;;
49175;SDS011;35012;47.200;9.748;2023-04-24T06:10:02;1.70;;;0.90;;
49175;SDS011;35012;47.200;9.748;2023-04-24T06:12:28;0.60;;;0.60;;
49175;SDS011;35012;47.200;9.748;2023-04-24T06:14:54;2.20;;;0.80;;
49175;SDS011;35012;47.200;9.748;2023-04-24T06:17:20;1.47;;;0.50;;
49175;SDS011;35012;47.200;9.748;2023-04-24T06:19:46;0.57;;;0.50;;
49175;SDS011;35012;47.200;9.748;2023-04-24T06:22:12;0.70;;;0.60;;
49175;SDS011;35012;47.200;9.748;2023-04-24T06:24:39;1.17;;;0.50;;
49175;SDS011;35012;47.200;9.748;2023-04-24T06:27:05;0.57;;;0.50;;
49175;SDS011;35012;47.200;9.748;2023-04-24T06:29:30;0.43;;;0.43;;
49175;SDS011;35012;47.200;9.748;2023-04-24T06:31:56;1.00;;;0.80;;
49175;SDS011;35012;47.200;9.748;2023-04-24T06:34:21;1.07;;;0.50;;
49175;SDS011;35012;47.200;9.748;2023-04-24T06:36:47;0.50;;;0.40;;
49175;SDS011;35012;47.200;9.748;2023-04-24T06:39:12;0.33;;;0.33;;
49175;SDS011;35012;47.200;9.748;2023-04-24T06:41:38;1.07;;;0.40;;
49175;SDS011;35012;47.200;9.748;2023-04-24T06:44:05;2.37;;;0.60;;
49175;SDS011;35012;47.200;9.748;2023-04-24T06:46:31;1.07;;;0.40;;
49175;SDS011;35012;47.200;9.748;2023-04-24T06:48:56;1.30;;;0.60;;
49175;SDS011;35012;47.200;9.748;2023-04-24T06:51:23;0.90;;;0.70;;
49175;SDS011;35012;47.200;9.748;2023-04-24T06:53:49;1.60;;;0.67;;
49175;SDS011;35012;47.200;9.748;2023-04-24T06:56:15;1.43;;;0.53;;
49175;SDS011;35012;47.200;9.748;2023-04-24T06:58:41;1.00;;;0.37;;
49175;SDS011;35012;47.200;9.748;2023-04-24T07:01:07;1.07;;;0.60;;
49175;SDS011;35012;47.200;9.748;2023-04-24T07:03:32;1.00;;;0.77;;
49175;SDS011;35012;47.200;9.748;2023-04-24T07:05:58;1.63;;;0.77;;
49175;SDS011;35012;47.200;9.748;2023-04-24T07:08:23;2.63;;;0.73;;
49175;SDS011;35012;47.200;9.748;2023-04-24T07:10:50;1.00;;;0.70;;
49175;SDS011;35012;47.200;9.748;2023-04-24T07:13:16;1.47;;;0.87;;
49175;SDS011;35012;47.200;9.748;2023-04-24T07:15:42;1.63;;;0.90;;
49175;SDS011;35012;47.200;9.748;2023-04-24T07:18:08;1.20;;;1.10;;
49175;SDS011;35012;47.200;9.748;2023-04-24T07:20:33;1.73;;;0.70;;
49175;SDS011;35012;47.200;9.748;2023-04-24T07:22:59;0.60;;;0.50;;
49175;SDS011;35012;47.200;9.748;2023-04-24T07:25:25;0.60;;;0.53;;
49175;SDS011;35012;47.200;9.748;2023-04-24T07:27:50;1.23;;;0.77;;
49175;SDS011;35012;47.200;9.748;2023-04-24T07:30:16;0.90;;;0.70;;
49175;SDS011;35012;47.200;9.748;2023-04-24T07:32:41;0.97;;;0.87;;
49175;SDS011;35012;47.200;9.748;2023-04-24T07:35:07;0.80;;;0.70;;
49175;SDS011;35012;47.200;9.748;2023-04-24T07:37:34;1.63;;;0.67;;
49175;SDS011;35012;47.200;9.748;2023-04-24T07:40:00;0.80;;;0.60;;
49175;SDS011;35012;47.200;9.748;2023-04-24T07:42:26;1.30;;;0.60;;
49175;SDS011;35012;47.200;9.748;2023-04-24T07:44:51;1.63;;;0.80;;
49175;SDS011;35012;47.200;9.748;2023-04-24T07:47:17;2.23;;;0.90;;
49175;SDS011;35012;47.200;9.748;2023-04-24T07:49:42;1.70;;;0.80;;
49175;SDS011;35012;47.200;9.748;2023-04-24T07:52:08;1.37;;;0.80;;
49175;SDS011;35012;47.200;9.748;2023-04-24T07:54:33;1.07;;;0.70;;
49175;SDS011;35012;47.200;9.748;2023-04-24T07:56:59;1.20;;;1.00;;
49175;SDS011;35012;47.200;9.748;2023-04-24T07:59:25;1.40;;;1.20;;
49175;SDS011;35012;47.200;9.748;2023-04-24T08:01:51;1.33;;;0.90;;
49175;SDS011;35012;47.200;9.748;2023-04-24T08:04:16;1.17;;;0.87;;
49175;SDS011;35012;47.200;9.748;2023-04-24T08:06:43;1.17;;;1.07;;
49175;SDS011;35012;47.200;9.748;2023-04-24T08:09:08;1.53;;;1.37;;
49175;SDS011;35012;47.200;9.748;2023-04-24T08:11:34;1.67;;;0.80;;
49175;SDS011;35012;47.200;9.748;2023-04-24T08:13:59;1.73;;;1.10;;
49175;SDS011;35012;47.200;9.748;2023-04-24T08:16:25;1.57;;;0.80;;
49175;SDS011;35012;47.200;9.748;2023-04-24T08:18:51;4.23;;;3.40;;
49175;SDS011;35012;47.200;9.748;2023-04-24T08:21:17;2.63;;;1.97;;
49175;SDS011;35012;47.200;9.748;2023-04-24T08:23:44;7.57;;;4.60;;
49175;SDS011;35012;47.200;9.748;2023-04-24T08:26:10;0.73;;;0.73;;
49175;SDS011;35012;47.200;9.748;2023-04-24T08:28:36;1.00;;;0.67;;
49175;SDS011;35012;47.200;9.748;2023-04-24T08:31:02;0.97;;;0.80;;
49175;SDS011;35012;47.200;9.748;2023-04-24T08:33:29;1.10;;;0.70;;
49175;SDS011;35012;47.200;9.748;2023-04-24T08:36:04;1.80;;;1.30;;
49175;SDS011;35012;47.200;9.748;2023-04-24T08:38:31;1.17;;;0.77;;
49175;SDS011;35012;47.200;9.748;2023-04-24T08:40:58;0.87;;;0.63;;
49175;SDS011;35012;47.200;9.748;2023-04-24T08:43:24;2.03;;;0.70;;
49175;SDS011;35012;47.200;9.748;2023-04-24T08:45:51;1.40;;;1.10;;
49175;SDS011;35012;47.200;9.748;2023-04-24T08:48:17;1.07;;;0.80;;
49175;SDS011;35012;47.200;9.748;2023-04-24T08:50:43;1.00;;;0.77;;
49175;SDS011;35012;47.200;9.748;2023-04-24T08:53:09;0.80;;;0.60;;
49175;SDS011;35012;47.200;9.748;2023-04-24T08:55:35;2.00;;;0.70;;
49175;SDS011;35012;47.200;9.748;2023-04-24T08:58:02;1.43;;;0.90;;
49175;SDS011;35012;47.200;9.748;2023-04-24T09:00:28;1.70;;;0.80;;
49175;SDS011;35012;47.200;9.748;2023-04-24T09:02:54;1.60;;;1.07;;
49175;SDS011;35012;47.200;9.748;2023-04-24T09:05:20;1.70;;;0.90;;
49175;SDS011;35012;47.200;9.748;2023-04-24T09:07:49;2.37;;;0.80;;
49175;SDS011;35012;47.200;9.748;2023-04-24T09:10:17;1.10;;;1.00;;
49175;SDS011;35012;47.200;9.748;2023-04-24T09:12:43;1.10;;;1.00;;
49175;SDS011;35012;47.200;9.748;2023-04-24T09:15:09;2.70;;;1.10;;
49175;SDS011;35012;47.200;9.748;2023-04-24T09:17:35;2.17;;;1.00;;
49175;SDS011;35012;47.200;9.748;2023-04-24T09:20:01;1.20;;;0.70;;
49175;SDS011;35012;47.200;9.748;2023-04-24T09:22:29;1.20;;;0.70;;
49175;SDS011;35012;47.200;9.748;2023-04-24T09:25:05;1.93;;;1.13;;
49175;SDS011;35012;47.200;9.748;2023-04-24T09:27:33;1.83;;;0.77;;
49175;SDS011;35012;47.200;9.748;2023-04-24T09:29:59;1.53;;;0.60;;
49175;SDS011;35012;47.200;9.748;2023-04-24T09:32:25;0.90;;;0.70;;
49175;SDS011;35012;47.200;9.748;2023-04-24T09:35:12;3.60;;;0.80;;
49175;SDS011;35012;47.200;9.748;2023-04-24T09:37:43;2.93;;;0.87;;
49175;SDS011;35012;47.200;9.748;2023-04-24T09:40:27;0.60;;;0.60;;
49175;SDS011;35012;47.200;9.748;2023-04-24T09:42:56;0.87;;;0.70;;
49175;SDS011;35012;47.200;9.748;2023-04-24T09:45:27;1.87;;;1.00;;
49175;SDS011;35012;47.200;9.748;2023-04-24T09:48:02;1.10;;;0.90;;
49175;SDS011;35012;47.200;9.748;2023-04-24T09:50:29;1.27;;;0.70;;
49175;SDS011;35012;47.200;9.748;2023-04-24T09:53:01;1.77;;;0.90;;
49175;SDS011;35012;47.200;9.748;2023-04-24T09:55:28;0.97;;;0.73;;
49175;SDS011;35012;47.200;9.748;2023-04-24T09:57:55;1.80;;;0.60;;
49175;SDS011;35012;47.200;9.748;2023-04-24T10:00:22;1.10;;;0.80;;
49175;SDS011;35012;47.200;9.748;2023-04-24T10:02:56;1.00;;;0.67;;
49175;SDS011;35012;47.200;9.748;2023-04-24T10:05:26;0.83;;;0.70;;
49175;SDS011;35012;47.200;9.748;2023-04-24T10:08:06;0.50;;;0.50;;
49175;SDS011;35012;47.200;9.748;2023-04-24T10:10:40;1.00;;;0.50;;
49175;SDS011;35012;47.200;9.748;2023-04-24T10:13:07;0.77;;;0.60;;
49175;SDS011;35012;47.200;9.748;2023-04-24T10:15:33;0.80;;;0.60;;
49175;SDS011;35012;47.200;9.748;2023-04-24T10:17:58;0.60;;;0.40;;
49175;SDS011;35012;47.200;9.748;2023-04-24T10:20:25;2.77;;;0.70;;
49175;SDS011;35012;47.200;9.748;2023-04-24T10:22:54;1.33;;;0.63;;
49175;SDS011;35012;47.200;9.748;2023-04-24T10:25:20;1.07;;;0.70;;
49175;SDS011;35012;47.200;9.748;2023-04-24T10:27:47;1.10;;;0.50;;
49175;SDS011;35012;47.200;9.748;2023-04-24T10:30:14;0.70;;;0.50;;
49175;SDS011;35012;47.200;9.748;2023-04-24T10:32:40;2.20;;;0.60;;
49175;SDS011;35012;47.200;9.748;2023-04-24T10:35:06;0.90;;;0.80;;
49175;SDS011;35012;47.200;9.748;2023-04-24T10:37:40;2.23;;;0.60;;
49175;SDS011;35012;47.200;9.748;2023-04-24T10:40:10;0.67;;;0.50;;
49175;SDS011;35012;47.200;9.748;2023-04-24T10:42:39;2.30;;;0.73;;
49175;SDS011;35012;47.200;9.748;2023-04-24T10:45:06;0.90;;;0.60;;
49175;SDS011;35012;47.200;9.748;2023-04-24T10:47:41;1.60;;;1.00;;
49175;SDS011;35012;47.200;9.748;2023-04-24T10:50:08;0.73;;;0.40;;
49175;SDS011;35012;47.200;9.748;2023-04-24T10:52:47;2.47;;;0.80;;
49175;SDS011;35012;47.200;9.748;2023-04-24T10:55:15;2.23;;;0.90;;
49175;SDS011;35012;47.200;9.748;2023-04-24T10:58:00;0.53;;;0.50;;
49175;SDS011;35012;47.200;9.748;2023-04-24T11:00:29;0.60;;;0.50;;
49175;SDS011;35012;47.200;9.748;2023-04-24T11:02:54;7.63;;;2.00;;
49175;SDS011;35012;47.200;9.748;2023-04-24T11:05:21;7.00;;;2.00;;
49175;SDS011;35012;47.200;9.748;2023-04-24T11:10:43;1.40;;;1.10;;
49175;SDS011;35012;47.200;9.748;2023-04-24T11:13:09;3.30;;;1.57;;
49175;SDS011;35012;47.200;9.748;2023-04-24T11:15:35;1.60;;;1.10;;
49175;SDS011;35012;47.200;9.748;2023-04-24T11:18:00;0.70;;;0.70;;
49175;SDS011;35012;47.200;9.748;2023-04-24T11:20:26;3.53;;;0.87;;
49175;SDS011;35012;47.200;9.748;2023-04-24T11:22:54;2.83;;;0.90;;
49175;SDS011;35012;47.200;9.748;2023-04-24T11:25:20;1.60;;;0.90;;
49175;SDS011;35012;47.200;9.748;2023-04-24T11:27:47;3.73;;;1.20;;
49175;SDS011;35012;47.200;9.748;2023-04-24T11:30:16;2.27;;;0.97;;
49175;SDS011;35012;47.200;9.748;2023-04-24T11:32:46;3.47;;;1.20;;
49175;SDS011;35012;47.200;9.748;2023-04-24T11:37:50;1.83;;;0.80;;
49175;SDS011;35012;47.200;9.748;2023-04-24T11:40:18;1.83;;;1.10;;
49175;SDS011;35012;47.200;9.748;2023-04-24T11:42:49;1.40;;;1.00;;
49175;SDS011;35012;47.200;9.748;2023-04-24T11:45:16;1.23;;;1.00;;
49175;SDS011;35012;47.200;9.748;2023-04-24T11:48:00;1.20;;;0.90;;
49175;SDS011;35012;47.200;9.748;2023-04-24T11:50:26;1.30;;;0.70;;
49175;SDS011;35012;47.200;9.748;2023-04-24T11:52:52;1.30;;;0.90;;
49175;SDS011;35012;47.200;9.748;2023-04-24T11:57:46;2.90;;;0.90;;
49175;SDS011;35012;47.200;9.748;2023-04-24T12:00:16;2.37;;;1.10;;
49175;SDS011;35012;47.200;9.748;2023-04-24T12:02:42;1.50;;;0.90;;
49175;SDS011;35012;47.200;9.748;2023-04-24T12:05:08;1.70;;;1.03;;
49175;SDS011;35012;47.200;9.748;2023-04-24T12:07:41;1.53;;;1.20;;
49175;SDS011;35012;47.200;9.748;2023-04-24T12:10:10;1.67;;;1.23;;
49175;SDS011;35012;47.200;9.748;2023-04-24T12:12:35;1.50;;;1.10;;
49175;SDS011;35012;47.200;9.748;2023-04-24T12:15:01;1.30;;;1.20;;
49175;SDS011;35012;47.200;9.748;2023-04-24T12:17:32;2.03;;;1.40;;
49175;SDS011;35012;47.200;9.748;2023-04-24T12:20:05;2.83;;;1.30;;
49175;SDS011;35012;47.200;9.748;2023-04-24T12:25:18;3.40;;;1.37;;
49175;SDS011;35012;47.200;9.748;2023-04-24T12:27:45;2.53;;;1.10;;
49175;SDS011;35012;47.200;9.748;2023-04-24T12:30:12;1.97;;;1.07;;
49175;SDS011;35012;47.200;9.748;2023-04-24T12:32:43;2.37;;;1.30;;
49175;SDS011;35012;47.200;9.748;2023-04-24T12:35:09;1.93;;;1.10;;
49175;SDS011;35012;47.200;9.748;2023-04-24T12:37:35;1.77;;;1.30;;
49175;SDS011;35012;47.200;9.748;2023-04-24T12:40:05;1.60;;;1.40;;
49175;SDS011;35012;47.200;9.748;2023-04-24T12:42:33;2.43;;;1.40;;
49175;SDS011;35012;47.200;9.748;2023-04-24T12:45:05;1.83;;;1.20;;
49175;SDS011;35012;47.200;9.748;2023-04-24T12:47:32;2.70;;;1.47;;
49175;SDS011;35012;47.200;9.748;2023-04-24T12:49:58;1.47;;;1.10;;
49175;SDS011;35012;47.200;9.748;2023-04-24T12:52:24;4.43;;;1.20;;
49175;SDS011;35012;47.200;9.748;2023-04-24T12:54:52;2.80;;;1.07;;
49175;SDS011;35012;47.200;9.748;2023-04-24T12:57:18;1.67;;;1.07;;
49175;SDS011;35012;47.200;9.748;2023-04-24T12:59:44;1.40;;;1.17;;
49175;SDS011;35012;47.200;9.748;2023-04-24T13:02:09;2.13;;;1.10;;
49175;SDS011;35012;47.200;9.748;2023-04-24T13:04:36;2.73;;;1.30;;
49175;SDS011;35012;47.200;9.748;2023-04-24T13:07:01;3.13;;;1.30;;
49175;SDS011;35012;47.200;9.748;2023-04-24T13:09:27;1.47;;;1.20;;
49175;SDS011;35012;47.200;9.748;2023-04-24T13:11:53;1.80;;;1.07;;
49175;SDS011;35012;47.200;9.748;2023-04-24T13:14:19;1.73;;;1.00;;
49175;SDS011;35012;47.200;9.748;2023-04-24T13:16:45;2.23;;;1.10;;
49175;SDS011;35012;47.200;9.748;2023-04-24T13:19:10;1.70;;;1.00;;
49175;SDS011;35012;47.200;9.748;2023-04-24T13:21:36;1.90;;;0.90;;
49175;SDS011;35012;47.200;9.748;2023-04-24T13:24:01;1.20;;;0.90;;
49175;SDS011;35012;47.200;9.748;2023-04-24T13:26:28;1.70;;;0.93;;
49175;SDS011;35012;47.200;9.748;2023-04-24T13:28:54;2.23;;;1.00;;
49175;SDS011;35012;47.200;9.748;2023-04-24T13:31:19;1.17;;;0.90;;
49175;SDS011;35012;47.200;9.748;2023-04-24T13:33:45;1.17;;;0.90;;
49175;SDS011;35012;47.200;9.748;2023-04-24T13:36:10;6.20;;;1.10;;
49175;SDS011;35012;47.200;9.748;2023-04-24T13:38:36;1.60;;;1.00;;
49175;SDS011;35012;47.200;9.748;2023-04-24T13:41:01;2.40;;;1.00;;
49175;SDS011;35012;47.200;9.748;2023-04-24T13:43:27;1.33;;;0.90;;
49175;SDS011;35012;47.200;9.748;2023-04-24T13:45:53;1.57;;;1.00;;
49175;SDS011;35012;47.200;9.748;2023-04-24T13:48:18;1.73;;;0.80;;
49175;SDS011;35012;47.200;9.748;2023-04-24T13:50:44;1.37;;;0.90;;
49175;SDS011;35012;47.200;9.748;2023-04-24T13:53:09;1.00;;;0.80;;
49175;SDS011;35012;47.200;9.748;2023-04-24T13:55:35;2.30;;;0.80;;
49175;SDS011;35012;47.200;9.748;2023-04-24T13:58:01;1.23;;;0.80;;
49175;SDS011;35012;47.200;9.748;2023-04-24T14:00:27;2.90;;;0.90;;
49175;SDS011;35012;47.200;9.748;2023-04-24T14:02:53;1.57;;;0.90;;
49175;SDS011;35012;47.200;9.748;2023-04-24T14:05:18;2.17;;;0.97;;
49175;SDS011;35012;47.200;9.748;2023-04-24T14:07:44;1.13;;;0.80;;
49175;SDS011;35012;47.200;9.748;2023-04-24T14:10:09;1.83;;;0.90;;
49175;SDS011;35012;47.200;9.748;2023-04-24T14:12:35;2.57;;;0.97;;
49175;SDS011;35012;47.200;9.748;2023-04-24T14:15:01;4.30;;;1.10;;
49175;SDS011;35012;47.200;9.748;2023-04-24T14:17:26;1.13;;;0.90;;
49175;SDS011;35012;47.200;9.748;2023-04-24T14:19:52;1.90;;;0.87;;
49175;SDS011;35012;47.200;9.748;2023-04-24T14:22:21;1.90;;;0.97;;
49175;SDS011;35012;47.200;9.748;2023-04-24T14:24:46;1.83;;;1.30;;
49175;SDS011;35012;47.200;9.748;2023-04-24T14:27:12;1.47;;;1.00;;
49175;SDS011;35012;47.200;9.748;2023-04-24T14:29:37;0.97;;;0.80;;
49175;SDS011;35012;47.200;9.748;2023-04-24T14:32:03;0.80;;;0.60;;
49175;SDS011;35012;47.200;9.748;2023-04-24T14:34:28;1.47;;;0.77;;
49175;SDS011;35012;47.200;9.748;2023-04-24T14:36:53;0.57;;;0.50;;
49175;SDS011;35012;47.200;9.748;2023-04-24T14:39:19;1.37;;;0.63;;
49175;SDS011;35012;47.200;9.748;2023-04-24T14:41:45;0.90;;;0.80;;
49175;SDS011;35012;47.200;9.748;2023-04-24T14:44:10;1.47;;;0.87;;
49175;SDS011;35012;47.200;9.748;2023-04-24T14:46:36;1.10;;;0.70;;
49175;SDS011;35012;47.200;9.748;2023-04-24T14:49:01;2.70;;;0.80;;
49175;SDS011;35012;47.200;9.748;2023-04-24T14:51:27;2.80;;;0.87;;
49175;SDS011;35012;47.200;9.748;2023-04-24T14:53:52;0.90;;;0.70;;